createdAt,value
2019-05-19T00:02:13.032Z,100.00
2019-05-19T00:04:39.816Z,100.00
2019-05-19T00:07:06.502Z,100.00
2019-05-19T00:09:33.185Z,100.00
2019-05-19T00:11:59.839Z,100.00
2019-05-19T00:14:26.553Z,100.00
2019-05-19T00:16:53.227Z,100.00
2019-05-19T00:19:26.898Z,100.00
2019-05-19T00:21:48.690Z,100.00
2019-05-19T00:24:15.370Z,100.00
2019-05-19T00:26:43.149Z,100.00
2019-05-19T00:29:10.046Z,100.00
2019-05-19T00:31:36.729Z,100.00
2019-05-19T00:34:03.539Z,100.00
2019-05-19T00:36:30.286Z,100.00
2019-05-19T00:38:56.977Z,100.00
2019-05-19T00:41:23.771Z,100.00
2019-05-19T00:43:50.558Z,100.00
2019-05-19T00:46:17.325Z,100.00
2019-05-19T00:48:44.809Z,100.00
2019-05-19T00:51:11.835Z,100.00
2019-05-19T00:53:38.510Z,100.00
2019-05-19T00:56:05.320Z,100.00
2019-05-19T00:58:32.931Z,100.00
2019-05-19T01:00:59.753Z,100.00
2019-05-19T01:03:26.463Z,100.00
2019-05-19T01:05:53.244Z,100.00
2019-05-19T01:08:20.276Z,100.00
2019-05-19T01:10:47.045Z,100.00
2019-05-19T01:13:15.686Z,100.00
2019-05-19T01:15:42.608Z,100.00
2019-05-19T01:18:09.300Z,100.00
2019-05-19T01:20:36.084Z,100.00
2019-05-19T01:23:02.905Z,100.00
2019-05-19T01:25:29.660Z,100.00
2019-05-19T01:27:56.582Z,100.00
2019-05-19T01:30:23.731Z,100.00
2019-05-19T01:32:50.642Z,100.00
2019-05-19T01:35:17.321Z,100.00
2019-05-19T01:37:44.007Z,100.00
2019-05-19T01:40:11.912Z,100.00
2019-05-19T01:42:38.602Z,100.00
2019-05-19T01:45:05.610Z,100.00
2019-05-19T01:47:32.294Z,100.00
2019-05-19T01:50:16.547Z,100.00
2019-05-19T01:52:27.573Z,100.00
2019-05-19T01:54:54.271Z,100.00
2019-05-19T01:57:21.051Z,100.00
2019-05-19T01:59:47.762Z,100.00
2019-05-19T02:02:14.480Z,100.00
2019-05-19T02:04:41.293Z,100.00
2019-05-19T02:07:08.092Z,100.00
2019-05-19T02:09:34.910Z,100.00
2019-05-19T02:12:01.700Z,100.00
2019-05-19T02:14:28.452Z,100.00
2019-05-19T02:16:55.321Z,100.00
2019-05-19T02:19:22.182Z,100.00
2019-05-19T02:21:48.964Z,100.00
2019-05-19T02:24:15.765Z,100.00
2019-05-19T02:26:42.558Z,100.00
2019-05-19T02:29:09.350Z,100.00
2019-05-19T02:31:36.080Z,100.00
2019-05-19T02:34:03.066Z,100.00
2019-05-19T02:36:29.748Z,100.00
2019-05-19T02:38:56.459Z,100.00
2019-05-19T02:41:25.123Z,100.00
2019-05-19T02:43:52.443Z,100.00
2019-05-19T02:46:19.622Z,100.00
2019-05-19T02:48:46.532Z,100.00
2019-05-19T02:51:13.754Z,100.00
2019-05-19T02:53:42.419Z,100.00
2019-05-19T02:56:09.704Z,100.00
2019-05-19T02:58:36.808Z,100.00
2019-05-19T03:01:03.485Z,100.00
2019-05-19T03:03:30.212Z,100.00
2019-05-19T03:05:57.013Z,100.00
2019-05-19T03:08:23.706Z,100.00
2019-05-19T03:10:51.422Z,100.00
2019-05-19T03:13:18.113Z,100.00
2019-05-19T03:15:44.797Z,100.00
2019-05-19T03:18:11.493Z,100.00
2019-05-19T03:20:38.153Z,100.00
2019-05-19T03:23:04.830Z,100.00
2019-05-19T03:25:31.515Z,100.00
2019-05-19T03:27:58.323Z,100.00
2019-05-19T03:30:53.466Z,100.00
2019-05-19T03:33:23.517Z,100.00
2019-05-19T03:35:50.175Z,100.00
2019-05-19T03:38:16.858Z,100.00
2019-05-19T03:40:43.665Z,100.00
2019-05-19T03:43:10.637Z,100.00
2019-05-19T03:45:37.538Z,100.00
2019-05-19T03:48:04.426Z,100.00
2019-05-19T03:50:31.209Z,100.00
2019-05-19T03:52:58.136Z,100.00
2019-05-19T03:55:24.797Z,100.00
2019-05-19T03:57:51.475Z,100.00
2019-05-19T04:00:19.668Z,100.00
2019-05-19T04:02:46.364Z,100.00
2019-05-19T04:05:13.250Z,100.00
2019-05-19T04:07:40.303Z,100.00
2019-05-19T04:10:07.541Z,100.00
2019-05-19T04:12:34.328Z,100.00
2019-05-19T04:15:02.314Z,100.00
2019-05-19T04:17:29.084Z,100.00
2019-05-19T04:19:55.777Z,100.00
2019-05-19T04:22:22.813Z,100.00
2019-05-19T04:24:51.405Z,100.00
2019-05-19T04:27:18.115Z,100.00
2019-05-19T04:29:44.836Z,100.00
2019-05-19T04:32:11.490Z,100.00
2019-05-19T04:34:38.182Z,100.00
2019-05-19T04:37:05.150Z,100.00
2019-05-19T04:39:32.112Z,100.00
2019-05-19T04:41:58.807Z,100.00
2019-05-19T04:44:25.586Z,100.00
2019-05-19T04:46:52.414Z,100.00
2019-05-19T04:49:19.077Z,100.00
2019-05-19T04:51:45.766Z,100.00
2019-05-19T04:54:13.577Z,100.00
2019-05-19T04:56:40.258Z,100.00
2019-05-19T04:59:06.945Z,100.00
2019-05-19T05:01:33.634Z,100.00
2019-05-19T05:04:00.338Z,100.00
2019-05-19T05:06:27.058Z,100.00
2019-05-19T05:08:53.858Z,100.00
2019-05-19T05:11:20.520Z,100.00
2019-05-19T05:13:47.208Z,100.00
2019-05-19T05:16:14.984Z,100.00
2019-05-19T05:18:41.688Z,100.00
2019-05-19T05:21:08.654Z,100.00
2019-05-19T05:23:35.351Z,100.00
2019-05-19T05:26:02.052Z,100.00
2019-05-19T05:28:28.754Z,100.00
2019-05-19T05:30:55.511Z,100.00
2019-05-19T05:33:22.205Z,100.00
2019-05-19T05:35:48.986Z,100.00
2019-05-19T05:38:16.237Z,100.00
2019-05-19T05:40:42.928Z,100.00
2019-05-19T05:43:09.617Z,100.00
2019-05-19T05:45:36.316Z,100.00
2019-05-19T05:48:03.138Z,100.00
2019-05-19T05:50:29.818Z,100.00
2019-05-19T05:52:56.604Z,100.00
2019-05-19T05:55:23.402Z,100.00
2019-05-19T05:57:50.081Z,100.00
2019-05-19T06:00:17.082Z,100.00
2019-05-19T06:02:43.740Z,100.00
2019-05-19T06:05:10.615Z,100.00
2019-05-19T06:07:37.303Z,100.00
2019-05-19T06:10:04.961Z,100.00
2019-05-19T06:12:31.651Z,100.00
2019-05-19T06:14:58.370Z,100.00
2019-05-19T06:17:25.079Z,100.00
2019-05-19T06:19:51.838Z,100.00
2019-05-19T06:22:18.716Z,100.00
2019-05-19T06:24:45.388Z,100.00
2019-05-19T06:27:12.061Z,100.00
2019-05-19T06:29:38.847Z,100.00
2019-05-19T06:32:13.588Z,100.00
2019-05-19T06:34:40.278Z,100.00
2019-05-19T06:37:06.954Z,100.00
2019-05-19T06:39:33.623Z,100.00
2019-05-19T06:42:00.477Z,100.00
2019-05-19T06:44:27.217Z,100.00
2019-05-19T06:46:53.983Z,100.00
2019-05-19T06:49:20.756Z,100.00
2019-05-19T06:51:47.539Z,100.00
2019-05-19T06:54:14.234Z,100.00
2019-05-19T06:56:40.939Z,100.00
2019-05-19T06:59:07.600Z,100.00
2019-05-19T07:01:34.304Z,100.00
2019-05-19T07:04:00.961Z,100.00
2019-05-19T07:06:27.734Z,100.00
2019-05-19T07:08:55.818Z,100.00
2019-05-19T07:11:22.519Z,100.00
2019-05-19T07:13:49.292Z,100.00
2019-05-19T07:16:15.983Z,100.00
2019-05-19T07:18:42.673Z,100.00
2019-05-19T07:21:09.365Z,100.00
2019-05-19T07:23:37.273Z,100.00
2019-05-19T07:26:04.154Z,100.00
2019-05-19T07:28:30.941Z,100.00
2019-05-19T07:30:57.726Z,100.00
2019-05-19T07:33:24.405Z,100.00
2019-05-19T07:35:51.093Z,100.00
2019-05-19T07:38:17.897Z,100.00
2019-05-19T07:40:44.656Z,100.00
2019-05-19T07:43:11.422Z,100.00
2019-05-19T07:45:39.251Z,100.00
2019-05-19T07:48:05.971Z,100.00
2019-05-19T07:50:32.644Z,100.00
2019-05-19T07:53:12.366Z,100.00
2019-05-19T07:55:39.053Z,100.00
2019-05-19T07:58:05.832Z,100.00
2019-05-19T08:00:32.506Z,100.00
2019-05-19T08:02:59.242Z,100.00
2019-05-19T08:05:26.016Z,100.00
2019-05-19T08:07:52.687Z,100.00
2019-05-19T08:10:19.418Z,100.00
2019-05-19T08:12:46.062Z,100.00
2019-05-19T08:15:13.040Z,100.00
2019-05-19T08:17:39.803Z,100.00
2019-05-19T08:20:06.679Z,100.00
2019-05-19T08:22:34.566Z,100.00
2019-05-19T08:25:01.227Z,100.00
2019-05-19T08:27:27.899Z,100.00
2019-05-19T08:29:54.793Z,100.00
2019-05-19T08:32:21.582Z,100.00
2019-05-19T08:34:48.269Z,100.00
2019-05-19T08:37:15.148Z,100.00
2019-05-19T08:39:41.782Z,100.00
2019-05-19T08:42:08.461Z,100.00
2019-05-19T08:44:35.258Z,100.00
2019-05-19T08:47:01.985Z,100.00
2019-05-19T08:49:28.720Z,100.00
2019-05-19T08:51:55.468Z,100.00
2019-05-19T08:54:22.176Z,100.00
2019-05-19T08:56:49.393Z,100.00
2019-05-19T08:59:16.095Z,100.00
2019-05-19T09:01:42.759Z,100.00
2019-05-19T09:04:09.535Z,100.00
2019-05-19T09:06:36.230Z,100.00
2019-05-19T09:09:04.292Z,100.00
2019-05-19T09:11:31.182Z,100.00
2019-05-19T09:13:58.031Z,100.00
2019-05-19T09:16:24.682Z,100.00
2019-05-19T09:18:51.476Z,100.00
2019-05-19T09:21:18.159Z,100.00
2019-05-19T09:23:44.925Z,100.00
2019-05-19T09:26:11.623Z,100.00
2019-05-19T09:28:38.382Z,100.00
2019-05-19T09:31:05.187Z,100.00
2019-05-19T09:33:31.877Z,100.00
2019-05-19T09:35:58.655Z,100.00
2019-05-19T09:38:25.430Z,100.00
2019-05-19T09:40:52.115Z,100.00
2019-05-19T09:43:18.897Z,100.00
2019-05-19T09:45:45.693Z,100.00
2019-05-19T09:48:12.471Z,100.00
2019-05-19T09:50:39.252Z,100.00
2019-05-19T09:53:05.934Z,100.00
2019-05-19T09:55:32.662Z,100.00
2019-05-19T09:57:59.474Z,100.00
2019-05-19T10:00:26.403Z,100.00
2019-05-19T10:02:53.102Z,100.00
2019-05-19T10:05:20.296Z,100.00
2019-05-19T10:07:47.020Z,100.00
2019-05-19T10:10:16.687Z,100.00
2019-05-19T10:12:45.731Z,100.00
2019-05-19T10:15:13.488Z,100.00
2019-05-19T10:17:40.173Z,100.00
2019-05-19T10:20:07.568Z,100.00
2019-05-19T10:22:34.402Z,100.00
2019-05-19T10:25:20.387Z,100.00
2019-05-19T10:27:29.896Z,100.00
2019-05-19T10:29:56.563Z,100.00
2019-05-19T10:32:23.322Z,100.00
2019-05-19T10:34:50.251Z,100.00
2019-05-19T10:37:16.937Z,100.00
2019-05-19T10:39:43.839Z,100.00
2019-05-19T10:42:10.587Z,100.00
2019-05-19T10:44:37.406Z,100.00
2019-05-19T10:47:04.255Z,100.00
2019-05-19T10:49:31.019Z,100.00
2019-05-19T10:51:57.926Z,100.00
2019-05-19T10:54:24.703Z,100.00
2019-05-19T10:56:51.489Z,100.00
2019-05-19T10:59:18.295Z,100.00
2019-05-19T11:01:44.960Z,100.00
2019-05-19T11:04:11.745Z,100.00
2019-05-19T11:06:38.434Z,100.00
2019-05-19T11:09:06.124Z,100.00
2019-05-19T11:11:32.989Z,100.00
2019-05-19T11:13:59.682Z,100.00
2019-05-19T11:16:26.445Z,100.00
2019-05-19T11:18:53.210Z,100.00
2019-05-19T11:21:19.931Z,100.00
2019-05-19T11:23:46.782Z,100.00
2019-05-19T11:26:13.561Z,100.00
2019-05-19T11:28:40.257Z,100.00
2019-05-19T11:31:07.029Z,100.00
2019-05-19T11:33:33.686Z,100.00
2019-05-19T11:36:00.405Z,100.00
2019-05-19T11:38:27.076Z,100.00
2019-05-19T11:40:53.801Z,100.00
2019-05-19T11:43:20.442Z,100.00
2019-05-19T11:45:48.328Z,100.00
2019-05-19T11:48:15.027Z,100.00
2019-05-19T11:50:42.305Z,100.00
2019-05-19T11:53:09.179Z,100.00
2019-05-19T11:55:36.282Z,100.00
2019-05-19T11:58:02.973Z,100.00
2019-05-19T12:00:29.859Z,100.00
2019-05-19T12:02:56.530Z,100.00
2019-05-19T12:05:23.560Z,100.00
2019-05-19T12:07:50.912Z,100.00
2019-05-19T12:10:17.739Z,100.00
2019-05-19T12:12:44.438Z,100.00
2019-05-19T12:15:11.433Z,100.00
2019-05-19T12:17:38.094Z,100.00
2019-05-19T12:20:04.910Z,100.00
2019-05-19T12:22:31.699Z,93.10
2019-05-19T12:24:58.486Z,95.24
2019-05-19T12:27:25.289Z,86.55
2019-05-19T12:29:52.118Z,83.30
2019-05-19T12:32:18.867Z,83.82
2019-05-19T12:34:45.538Z,88.61
2019-05-19T12:37:12.239Z,80.47
2019-05-19T12:39:38.917Z,75.50
2019-05-19T12:42:05.757Z,75.59
2019-05-19T12:44:32.588Z,79.20
2019-05-19T12:46:59.284Z,74.95
2019-05-19T12:49:26.050Z,73.95
2019-05-19T12:51:52.953Z,75.77
2019-05-19T12:54:19.634Z,79.26
2019-05-19T12:56:46.306Z,79.65
2019-05-19T12:59:13.295Z,75.21
2019-05-19T13:01:40.515Z,75.62
2019-05-19T13:04:07.357Z,79.12
2019-05-19T13:06:34.042Z,79.36
2019-05-19T13:09:00.762Z,76.11
2019-05-19T13:11:27.459Z,76.05
2019-05-19T13:13:54.149Z,73.95
2019-05-19T13:16:20.932Z,73.36
2019-05-19T13:18:47.613Z,75.55
2019-05-19T13:21:14.403Z,74.82
2019-05-19T13:23:41.118Z,73.78
2019-05-19T13:26:07.906Z,71.13
2019-05-19T13:28:34.587Z,67.60
2019-05-19T13:31:01.262Z,71.49
2019-05-19T13:33:28.134Z,71.26
2019-05-19T13:35:54.797Z,75.67
2019-05-19T13:38:21.478Z,73.58
2019-05-19T13:40:48.260Z,72.13
2019-05-19T13:43:15.038Z,74.70
2019-05-19T13:45:42.859Z,79.60
2019-05-19T13:48:09.573Z,76.08
2019-05-19T13:50:36.246Z,76.49
2019-05-19T13:53:03.026Z,77.18
2019-05-19T13:55:30.018Z,77.41
2019-05-19T13:57:56.797Z,75.33
2019-05-19T14:00:23.595Z,75.85
2019-05-19T14:02:50.282Z,82.70
2019-05-19T14:05:17.081Z,83.83
2019-05-19T14:07:44.874Z,85.62
2019-05-19T14:10:12.070Z,90.98
2019-05-19T14:12:38.872Z,87.30
2019-05-19T14:15:05.872Z,88.76
2019-05-19T14:17:33.693Z,91.26
2019-05-19T14:20:00.598Z,87.91
2019-05-19T14:22:27.310Z,88.16
2019-05-19T14:24:53.974Z,87.58
2019-05-19T14:27:29.606Z,90.98
2019-05-19T14:29:49.344Z,88.78
2019-05-19T14:32:17.188Z,85.58
2019-05-19T14:34:44.080Z,85.07
2019-05-19T14:37:10.881Z,85.44
2019-05-19T14:39:37.662Z,90.08
2019-05-19T14:42:08.074Z,92.78
2019-05-19T14:44:34.761Z,93.71
2019-05-19T14:47:01.586Z,93.32
2019-05-19T14:49:28.385Z,93.33
2019-05-19T14:51:55.093Z,91.60
2019-05-19T14:54:21.809Z,93.25
2019-05-19T14:56:48.492Z,94.36
2019-05-19T14:59:15.164Z,94.97
2019-05-19T15:01:41.942Z,97.93
2019-05-19T15:04:08.610Z,99.47
2019-05-19T15:06:35.372Z,98.73
2019-05-19T15:09:02.243Z,98.04
2019-05-19T15:11:30.362Z,100.00
2019-05-19T15:13:57.061Z,100.00
2019-05-19T15:16:23.776Z,100.00
2019-05-19T15:18:50.467Z,100.00
2019-05-19T15:21:17.167Z,100.00
2019-05-19T15:23:43.900Z,96.44
2019-05-19T15:26:10.590Z,96.05
2019-05-19T15:28:37.294Z,97.81
2019-05-19T15:31:04.027Z,98.99
2019-05-19T15:33:37.697Z,100.00
2019-05-19T15:35:59.313Z,100.00
2019-05-19T15:38:26.334Z,100.00
2019-05-19T15:40:53.039Z,100.00
2019-05-19T15:43:19.807Z,100.00
2019-05-19T15:45:46.477Z,100.00
2019-05-19T15:48:14.203Z,100.00
2019-05-19T15:50:40.878Z,100.00
2019-05-19T15:53:07.560Z,100.00
2019-05-19T15:55:34.341Z,100.00
2019-05-19T15:58:15.566Z,100.00
2019-05-19T16:00:29.686Z,100.00
2019-05-19T16:02:56.531Z,100.00
2019-05-19T16:05:23.243Z,100.00
2019-05-19T16:07:49.920Z,100.00
2019-05-19T16:10:16.713Z,100.00
2019-05-19T16:12:43.405Z,100.00
2019-05-19T16:15:10.385Z,100.00
2019-05-19T16:17:37.074Z,100.00
2019-05-19T16:20:05.060Z,100.00
2019-05-19T16:22:31.733Z,100.00
2019-05-19T16:24:58.398Z,100.00
2019-05-19T16:27:25.351Z,100.00
2019-05-19T16:29:52.107Z,100.00
2019-05-19T16:32:18.942Z,100.00
2019-05-19T16:34:45.636Z,100.00
2019-05-19T16:37:12.328Z,100.00
2019-05-19T16:39:38.986Z,100.00
2019-05-19T16:42:05.862Z,100.00
2019-05-19T16:44:32.632Z,100.00
2019-05-19T16:46:59.505Z,100.00
2019-05-19T16:49:26.193Z,100.00
2019-05-19T16:51:53.121Z,100.00
2019-05-19T16:54:24.959Z,100.00
2019-05-19T16:56:52.019Z,100.00
2019-05-19T16:59:19.190Z,100.00
2019-05-19T17:01:45.911Z,100.00
2019-05-19T17:04:12.779Z,100.00
2019-05-19T17:06:41.391Z,100.00
2019-05-19T17:09:08.573Z,100.00
2019-05-19T17:11:35.975Z,100.00
2019-05-19T17:14:03.070Z,100.00
2019-05-19T17:16:29.755Z,100.00
2019-05-19T17:18:56.407Z,100.00
2019-05-19T17:21:24.356Z,100.00
2019-05-19T17:23:51.569Z,100.00
2019-05-19T17:26:18.199Z,100.00
2019-05-19T17:28:59.579Z,100.00
2019-05-19T17:31:13.754Z,100.00
2019-05-19T17:33:41.605Z,100.00
2019-05-19T17:36:08.912Z,100.00
2019-05-19T17:38:35.838Z,100.00
2019-05-19T17:41:02.616Z,100.00
2019-05-19T17:43:29.396Z,100.00
2019-05-19T17:45:56.147Z,100.00
2019-05-19T17:48:26.615Z,100.00
2019-05-19T17:50:51.531Z,100.00
2019-05-19T17:53:18.523Z,100.00
2019-05-19T17:55:45.498Z,100.00
2019-05-19T17:58:12.285Z,100.00
2019-05-19T18:00:39.785Z,100.00
2019-05-19T18:03:09.206Z,100.00
2019-05-19T18:05:36.142Z,100.00
2019-05-19T18:08:03.139Z,100.00
2019-05-19T18:10:29.934Z,100.00
2019-05-19T18:12:56.833Z,100.00
2019-05-19T18:15:24.794Z,100.00
2019-05-19T18:17:51.583Z,100.00
2019-05-19T18:20:23.640Z,100.00
2019-05-19T18:22:47.190Z,100.00
2019-05-19T18:25:13.989Z,100.00
2019-05-19T18:27:41.078Z,100.00
2019-05-19T18:30:08.143Z,100.00
2019-05-19T18:32:34.818Z,100.00
2019-05-19T18:35:01.691Z,100.00
2019-05-19T18:37:28.348Z,100.00
2019-05-19T18:39:55.015Z,100.00
2019-05-19T18:42:21.804Z,100.00
2019-05-19T18:44:51.794Z,100.00
2019-05-19T18:47:21.085Z,100.00
2019-05-19T18:49:48.216Z,100.00
2019-05-19T18:52:15.305Z,100.00
2019-05-19T18:54:42.073Z,100.00
2019-05-19T18:57:08.811Z,100.00
2019-05-19T18:59:47.051Z,100.00
2019-05-19T19:02:04.402Z,100.00
2019-05-19T19:04:31.301Z,100.00
2019-05-19T19:06:58.295Z,100.00
2019-05-19T19:09:24.981Z,100.00
2019-05-19T19:11:51.700Z,100.00
2019-05-19T19:14:18.505Z,100.00
2019-05-19T19:16:45.196Z,100.00
2019-05-19T19:19:11.859Z,100.00
2019-05-19T19:21:38.543Z,100.00
2019-05-19T19:24:05.318Z,100.00
2019-05-19T19:26:32.453Z,100.00
2019-05-19T19:28:59.157Z,100.00
2019-05-19T19:31:25.928Z,100.00
2019-05-19T19:33:52.740Z,100.00
2019-05-19T19:36:20.498Z,100.00
2019-05-19T19:38:47.343Z,100.00
2019-05-19T19:41:15.336Z,100.00
2019-05-19T19:43:41.998Z,100.00
2019-05-19T19:46:08.690Z,100.00
2019-05-19T19:48:35.474Z,100.00
2019-05-19T19:51:02.241Z,100.00
2019-05-19T19:53:29.022Z,100.00
2019-05-19T19:55:55.852Z,100.00
2019-05-19T19:58:22.676Z,100.00
2019-05-19T20:00:49.522Z,100.00
2019-05-19T20:03:16.538Z,100.00
2019-05-19T20:05:45.639Z,100.00
2019-05-19T20:08:12.541Z,100.00
2019-05-19T20:10:39.345Z,100.00
2019-05-19T20:13:06.019Z,100.00
2019-05-19T20:15:33.259Z,100.00
2019-05-19T20:18:00.236Z,100.00
2019-05-19T20:20:27.011Z,100.00
2019-05-19T20:22:54.990Z,100.00
2019-05-19T20:25:23.943Z,100.00
2019-05-19T20:27:50.891Z,100.00
2019-05-19T20:30:33.632Z,100.00
2019-05-19T20:32:46.271Z,100.00
2019-05-19T20:35:13.173Z,100.00
2019-05-19T20:38:02.602Z,100.00
2019-05-19T20:40:29.383Z,100.00
2019-05-19T20:42:56.935Z,100.00
2019-05-19T20:45:23.970Z,100.00
2019-05-19T20:47:50.998Z,100.00
2019-05-19T20:50:17.865Z,100.00
2019-05-19T20:52:44.533Z,100.00
2019-05-19T20:55:11.418Z,100.00
2019-05-19T20:57:38.117Z,100.00
2019-05-19T21:00:05.994Z,100.00
2019-05-19T21:02:33.187Z,100.00
2019-05-19T21:04:59.849Z,100.00
2019-05-19T21:07:26.538Z,100.00
2019-05-19T21:09:55.649Z,100.00
2019-05-19T21:12:22.442Z,100.00
2019-05-19T21:14:49.213Z,100.00
2019-05-19T21:17:15.892Z,100.00
2019-05-19T21:19:44.670Z,100.00
2019-05-19T21:22:11.446Z,100.00
2019-05-19T21:24:38.169Z,100.00
2019-05-19T21:27:04.885Z,100.00
2019-05-19T21:29:31.547Z,100.00
2019-05-19T21:31:58.320Z,100.00
2019-05-19T21:34:25.041Z,100.00
2019-05-19T21:36:51.740Z,100.00
2019-05-19T21:39:18.410Z,100.00
2019-05-19T21:42:08.326Z,100.00
2019-05-19T21:44:35.048Z,100.00
2019-05-19T21:47:01.690Z,100.00
2019-05-19T21:49:28.361Z,100.00
2019-05-19T21:51:55.075Z,100.00
2019-05-19T21:54:21.845Z,100.00
2019-05-19T21:56:48.514Z,100.00
2019-05-19T21:59:17.204Z,100.00
2019-05-19T22:01:44.418Z,100.00
2019-05-19T22:04:11.494Z,100.00
2019-05-19T22:06:40.212Z,100.00
2019-05-19T22:09:07.270Z,100.00
2019-05-19T22:11:34.357Z,100.00
2019-05-19T22:14:01.041Z,100.00
2019-05-19T22:16:30.077Z,100.00
2019-05-19T22:18:56.894Z,100.00
2019-05-19T22:21:23.628Z,100.00
2019-05-19T22:23:50.336Z,100.00
2019-05-19T22:26:19.163Z,100.00
2019-05-19T22:28:46.031Z,100.00
2019-05-19T22:31:13.808Z,100.00
2019-05-19T22:33:40.520Z,100.00
2019-05-19T22:36:09.500Z,100.00
2019-05-19T22:38:36.649Z,100.00
2019-05-19T22:41:03.572Z,100.00
2019-05-19T22:43:30.246Z,100.00
2019-05-19T22:45:56.931Z,100.00
2019-05-19T22:48:23.611Z,100.00
2019-05-19T22:50:50.299Z,100.00
2019-05-19T22:53:17.009Z,100.00
2019-05-19T22:55:43.768Z,100.00
2019-05-19T22:58:10.437Z,100.00
2019-05-19T23:00:37.233Z,100.00
2019-05-19T23:03:03.914Z,100.00
2019-05-19T23:05:30.694Z,100.00
2019-05-19T23:07:57.837Z,100.00
2019-05-19T23:10:24.724Z,100.00
2019-05-19T23:12:51.410Z,100.00
2019-05-19T23:15:19.141Z,100.00
2019-05-19T23:17:45.925Z,100.00
2019-05-19T23:20:13.658Z,100.00
2019-05-19T23:22:40.463Z,100.00
2019-05-19T23:25:07.335Z,100.00
2019-05-19T23:27:34.102Z,100.00
2019-05-19T23:30:00.826Z,100.00
2019-05-19T23:32:27.573Z,100.00
2019-05-19T23:34:54.356Z,100.00
2019-05-19T23:37:21.222Z,100.00
2019-05-19T23:39:48.005Z,100.00
2019-05-19T23:42:14.696Z,100.00
2019-05-19T23:44:41.441Z,100.00
2019-05-19T23:47:08.234Z,100.00
2019-05-19T23:49:34.926Z,100.00
2019-05-19T23:52:01.574Z,100.00
2019-05-19T23:54:28.261Z,100.00
2019-05-19T23:56:54.938Z,100.00
2019-05-19T23:59:22.052Z,100.00
